sensor_id;sensor_type;location;lat;lon;timestamp;P1;durP1;ratioP1;P2;durP2;ratioP2
79229;SDS011;68663;49.122;17.544;2023-11-21T00:00:25;4.72;;;4.13;;
79229;SDS011;68663;49.122;17.544;2023-11-21T00:02:51;4.97;;;4.18;;
79229;SDS011;68663;49.122;17.544;2023-11-21T00:05:16;5.45;;;4.18;;
79229;SDS011;68663;49.122;17.544;2023-11-21T00:07:42;5.55;;;4.38;;
79229;SDS011;68663;49.122;17.544;2023-11-21T00:10:08;4.32;;;3.65;;
79229;SDS011;68663;49.122;17.544;2023-11-21T00:12:35;5.95;;;4.18;;
79229;SDS011;68663;49.122;17.544;2023-11-21T00:15:01;3.92;;;3.50;;
79229;SDS011;68663;49.122;17.544;2023-11-21T00:17:27;4.85;;;3.92;;
79229;SDS011;68663;49.122;17.544;2023-11-21T00:19:52;4.93;;;4.18;;
79229;SDS011;68663;49.122;17.544;2023-11-21T00:22:18;4.70;;;3.90;;
79229;SDS011;68663;49.122;17.544;2023-11-21T00:24:44;5.63;;;4.30;;
79229;SDS011;68663;49.122;17.544;2023-11-21T00:27:09;4.00;;;3.15;;
79229;SDS011;68663;49.122;17.544;2023-11-21T00:29:35;4.70;;;3.65;;
79229;SDS011;68663;49.122;17.544;2023-11-21T00:32:00;4.95;;;3.70;;
79229;SDS011;68663;49.122;17.544;2023-11-21T00:34:26;4.03;;;3.13;;
79229;SDS011;68663;49.122;17.544;2023-11-21T00:36:52;3.95;;;3.42;;
79229;SDS011;68663;49.122;17.544;2023-11-21T00:39:17;4.30;;;3.20;;
79229;SDS011;68663;49.122;17.544;2023-11-21T00:41:43;4.90;;;3.90;;
79229;SDS011;68663;49.122;17.544;2023-11-21T00:44:10;4.45;;;3.40;;
79229;SDS011;68663;49.122;17.544;2023-11-21T00:46:35;5.57;;;3.88;;
79229;SDS011;68663;49.122;17.544;2023-11-21T00:49:01;3.92;;;3.10;;
79229;SDS011;68663;49.122;17.544;2023-11-21T00:51:29;4.50;;;3.58;;
79229;SDS011;68663;49.122;17.544;2023-11-21T00:53:54;4.55;;;3.65;;
79229;SDS011;68663;49.122;17.544;2023-11-21T00:56:20;4.00;;;3.53;;
79229;SDS011;68663;49.122;17.544;2023-11-21T00:58:46;4.45;;;3.45;;
79229;SDS011;68663;49.122;17.544;2023-11-21T01:01:14;5.45;;;4.10;;
79229;SDS011;68663;49.122;17.544;2023-11-21T01:03:41;4.32;;;3.58;;
79229;SDS011;68663;49.122;17.544;2023-11-21T01:06:07;5.05;;;3.50;;
79229;SDS011;68663;49.122;17.544;2023-11-21T01:08:33;3.58;;;3.03;;
79229;SDS011;68663;49.122;17.544;2023-11-21T01:10:58;4.40;;;3.22;;
79229;SDS011;68663;49.122;17.544;2023-11-21T01:13:24;5.03;;;3.47;;
79229;SDS011;68663;49.122;17.544;2023-11-21T01:15:53;3.95;;;3.25;;
79229;SDS011;68663;49.122;17.544;2023-11-21T01:18:19;4.45;;;3.65;;
79229;SDS011;68663;49.122;17.544;2023-11-21T01:20:44;3.95;;;2.88;;
79229;SDS011;68663;49.122;17.544;2023-11-21T01:23:12;3.83;;;3.28;;
79229;SDS011;68663;49.122;17.544;2023-11-21T01:25:38;3.60;;;2.85;;
79229;SDS011;68663;49.122;17.544;2023-11-21T01:28:03;4.25;;;3.15;;
79229;SDS011;68663;49.122;17.544;2023-11-21T01:30:28;3.83;;;3.17;;
79229;SDS011;68663;49.122;17.544;2023-11-21T01:32:54;3.73;;;2.93;;
79229;SDS011;68663;49.122;17.544;2023-11-21T01:35:19;3.95;;;3.08;;
79229;SDS011;68663;49.122;17.544;2023-11-21T01:37:45;3.85;;;2.92;;
79229;SDS011;68663;49.122;17.544;2023-11-21T01:40:10;3.88;;;3.40;;
79229;SDS011;68663;49.122;17.544;2023-11-21T01:42:38;4.43;;;3.50;;
79229;SDS011;68663;49.122;17.544;2023-11-21T01:45:04;4.07;;;3.00;;
79229;SDS011;68663;49.122;17.544;2023-11-21T01:47:31;3.88;;;3.22;;
79229;SDS011;68663;49.122;17.544;2023-11-21T01:49:57;4.07;;;3.60;;
79229;SDS011;68663;49.122;17.544;2023-11-21T01:52:23;4.55;;;3.13;;
79229;SDS011;68663;49.122;17.544;2023-11-21T01:54:49;4.03;;;3.25;;
79229;SDS011;68663;49.122;17.544;2023-11-21T01:57:15;3.88;;;3.17;;
79229;SDS011;68663;49.122;17.544;2023-11-21T01:59:41;3.58;;;2.88;;
79229;SDS011;68663;49.122;17.544;2023-11-21T02:02:07;3.92;;;3.30;;
79229;SDS011;68663;49.122;17.544;2023-11-21T02:04:34;3.88;;;3.00;;
79229;SDS011;68663;49.122;17.544;2023-11-21T02:07:01;4.40;;;2.95;;
79229;SDS011;68663;49.122;17.544;2023-11-21T02:09:30;4.93;;;3.15;;
79229;SDS011;68663;49.122;17.544;2023-11-21T02:11:56;3.47;;;2.90;;
79229;SDS011;68663;49.122;17.544;2023-11-21T02:14:23;4.28;;;3.33;;
79229;SDS011;68663;49.122;17.544;2023-11-21T02:16:51;3.10;;;2.60;;
79229;SDS011;68663;49.122;17.544;2023-11-21T02:19:18;3.70;;;2.80;;
79229;SDS011;68663;49.122;17.544;2023-11-21T02:21:47;3.47;;;2.92;;
79229;SDS011;68663;49.122;17.544;2023-11-21T02:24:21;4.80;;;3.38;;
79229;SDS011;68663;49.122;17.544;2023-11-21T02:26:47;3.63;;;2.72;;
79229;SDS011;68663;49.122;17.544;2023-11-21T02:29:14;4.00;;;3.13;;
79229;SDS011;68663;49.122;17.544;2023-11-21T02:31:43;3.08;;;2.63;;
79229;SDS011;68663;49.122;17.544;2023-11-21T02:34:16;3.47;;;2.78;;
79229;SDS011;68663;49.122;17.544;2023-11-21T02:36:42;3.58;;;2.60;;
79229;SDS011;68663;49.122;17.544;2023-11-21T02:39:09;3.80;;;3.22;;
79229;SDS011;68663;49.122;17.544;2023-11-21T02:41:35;4.32;;;2.97;;
79229;SDS011;68663;49.122;17.544;2023-11-21T02:44:01;4.50;;;2.92;;
79229;SDS011;68663;49.122;17.544;2023-11-21T02:46:26;3.40;;;2.65;;
79229;SDS011;68663;49.122;17.544;2023-11-21T02:48:52;4.35;;;2.83;;
79229;SDS011;68663;49.122;17.544;2023-11-21T02:51:20;4.03;;;2.92;;
79229;SDS011;68663;49.122;17.544;2023-11-21T02:53:45;3.38;;;2.90;;
79229;SDS011;68663;49.122;17.544;2023-11-21T02:56:15;3.50;;;2.65;;
79229;SDS011;68663;49.122;17.544;2023-11-21T02:58:41;3.95;;;3.15;;
79229;SDS011;68663;49.122;17.544;2023-11-21T03:01:18;3.83;;;2.97;;
79229;SDS011;68663;49.122;17.544;2023-11-21T03:03:44;3.53;;;2.67;;
79229;SDS011;68663;49.122;17.544;2023-11-21T03:06:10;3.42;;;2.70;;
79229;SDS011;68663;49.122;17.544;2023-11-21T03:08:36;3.63;;;2.80;;
79229;SDS011;68663;49.122;17.544;2023-11-21T03:11:01;3.22;;;2.55;;
79229;SDS011;68663;49.122;17.544;2023-11-21T03:13:29;3.33;;;2.55;;
79229;SDS011;68663;49.122;17.544;2023-11-21T03:15:55;3.75;;;2.80;;
79229;SDS011;68663;49.122;17.544;2023-11-21T03:18:20;3.83;;;3.15;;
79229;SDS011;68663;49.122;17.544;2023-11-21T03:20:47;4.32;;;2.90;;
79229;SDS011;68663;49.122;17.544;2023-11-21T03:23:12;3.63;;;2.75;;
79229;SDS011;68663;49.122;17.544;2023-11-21T03:25:38;3.38;;;2.45;;
79229;SDS011;68663;49.122;17.544;2023-11-21T03:28:03;3.45;;;2.60;;
79229;SDS011;68663;49.122;17.544;2023-11-21T03:30:29;3.22;;;2.42;;
79229;SDS011;68663;49.122;17.544;2023-11-21T03:32:54;3.83;;;2.53;;
79229;SDS011;68663;49.122;17.544;2023-11-21T03:35:20;3.40;;;2.80;;
79229;SDS011;68663;49.122;17.544;2023-11-21T03:37:46;3.13;;;2.30;;
79229;SDS011;68663;49.122;17.544;2023-11-21T03:40:12;3.75;;;2.20;;
79229;SDS011;68663;49.122;17.544;2023-11-21T03:42:38;3.15;;;2.40;;
79229;SDS011;68663;49.122;17.544;2023-11-21T03:45:04;3.38;;;2.50;;
79229;SDS011;68663;49.122;17.544;2023-11-21T03:47:30;3.97;;;2.65;;
79229;SDS011;68663;49.122;17.544;2023-11-21T03:49:56;2.80;;;2.50;;
79229;SDS011;68663;49.122;17.544;2023-11-21T03:52:21;3.03;;;2.50;;
79229;SDS011;68663;49.122;17.544;2023-11-21T03:54:47;3.60;;;2.80;;
79229;SDS011;68663;49.122;17.544;2023-11-21T03:57:12;3.58;;;3.13;;
79229;SDS011;68663;49.122;17.544;2023-11-21T03:59:41;2.97;;;2.58;;
79229;SDS011;68663;49.122;17.544;2023-11-21T04:02:07;3.33;;;2.80;;
79229;SDS011;68663;49.122;17.544;2023-11-21T04:04:33;2.50;;;2.15;;
79229;SDS011;68663;49.122;17.544;2023-11-21T04:06:59;3.05;;;2.35;;
79229;SDS011;68663;49.122;17.544;2023-11-21T04:09:25;3.15;;;2.47;;
79229;SDS011;68663;49.122;17.544;2023-11-21T04:11:51;3.00;;;2.47;;
79229;SDS011;68663;49.122;17.544;2023-11-21T04:14:17;3.05;;;2.30;;
79229;SDS011;68663;49.122;17.544;2023-11-21T04:16:42;3.58;;;2.67;;
79229;SDS011;68663;49.122;17.544;2023-11-21T04:19:08;3.50;;;2.42;;
79229;SDS011;68663;49.122;17.544;2023-11-21T04:21:35;2.95;;;2.35;;
79229;SDS011;68663;49.122;17.544;2023-11-21T04:24:01;3.30;;;2.38;;
79229;SDS011;68663;49.122;17.544;2023-11-21T04:26:27;3.05;;;2.33;;
79229;SDS011;68663;49.122;17.544;2023-11-21T04:28:52;2.78;;;2.40;;
79229;SDS011;68663;49.122;17.544;2023-11-21T04:31:17;2.87;;;2.30;;
79229;SDS011;68663;49.122;17.544;2023-11-21T04:33:43;3.38;;;2.47;;
79229;SDS011;68663;49.122;17.544;2023-11-21T04:36:09;3.58;;;2.80;;
79229;SDS011;68663;49.122;17.544;2023-11-21T04:38:35;3.33;;;2.58;;
79229;SDS011;68663;49.122;17.544;2023-11-21T04:41:01;3.25;;;2.17;;
79229;SDS011;68663;49.122;17.544;2023-11-21T04:43:26;3.22;;;2.80;;
79229;SDS011;68663;49.122;17.544;2023-11-21T04:45:52;3.03;;;2.40;;
79229;SDS011;68663;49.122;17.544;2023-11-21T04:48:17;3.08;;;2.47;;
79229;SDS011;68663;49.122;17.544;2023-11-21T04:50:42;3.33;;;2.50;;
79229;SDS011;68663;49.122;17.544;2023-11-21T04:53:08;5.18;;;2.50;;
79229;SDS011;68663;49.122;17.544;2023-11-21T04:55:33;3.83;;;2.00;;
79229;SDS011;68663;49.122;17.544;2023-11-21T04:57:59;4.43;;;2.73;;
79229;SDS011;68663;49.122;17.544;2023-11-21T05:00:24;5.05;;;2.38;;
79229;SDS011;68663;49.122;17.544;2023-11-21T05:02:50;7.03;;;2.30;;
79229;SDS011;68663;49.122;17.544;2023-11-21T05:05:15;6.00;;;2.42;;
79229;SDS011;68663;49.122;17.544;2023-11-21T05:07:41;20.60;;;5.68;;
79229;SDS011;68663;49.122;17.544;2023-11-21T05:10:07;36.88;;;9.05;;
79229;SDS011;68663;49.122;17.544;2023-11-21T05:12:36;33.72;;;10.35;;
79229;SDS011;68663;49.122;17.544;2023-11-21T05:15:06;46.00;;;10.02;;
79229;SDS011;68663;49.122;17.544;2023-11-21T05:17:34;29.60;;;9.00;;
79229;SDS011;68663;49.122;17.544;2023-11-21T05:20:00;30.30;;;9.32;;
79229;SDS011;68663;49.122;17.544;2023-11-21T05:22:28;34.83;;;9.35;;
79229;SDS011;68663;49.122;17.544;2023-11-21T05:24:54;30.27;;;8.70;;
79229;SDS011;68663;49.122;17.544;2023-11-21T05:27:19;26.33;;;8.27;;
79229;SDS011;68663;49.122;17.544;2023-11-21T05:29:45;25.70;;;7.90;;
79229;SDS011;68663;49.122;17.544;2023-11-21T05:32:10;22.80;;;7.07;;
79229;SDS011;68663;49.122;17.544;2023-11-21T05:34:35;24.63;;;6.97;;
79229;SDS011;68663;49.122;17.544;2023-11-21T05:37:01;23.47;;;7.33;;
79229;SDS011;68663;49.122;17.544;2023-11-21T05:39:26;25.52;;;7.60;;
79229;SDS011;68663;49.122;17.544;2023-11-21T05:41:52;19.30;;;6.65;;
79229;SDS011;68663;49.122;17.544;2023-11-21T05:44:18;23.27;;;7.20;;
79229;SDS011;68663;49.122;17.544;2023-11-21T05:46:44;21.70;;;6.78;;
79229;SDS011;68663;49.122;17.544;2023-11-21T05:49:09;25.00;;;7.05;;
79229;SDS011;68663;49.122;17.544;2023-11-21T05:51:35;27.13;;;7.88;;
79229;SDS011;68663;49.122;17.544;2023-11-21T05:54:01;23.35;;;6.43;;
79229;SDS011;68663;49.122;17.544;2023-11-21T05:56:27;27.13;;;6.82;;
79229;SDS011;68663;49.122;17.544;2023-11-21T05:58:52;18.70;;;7.07;;
79229;SDS011;68663;49.122;17.544;2023-11-21T06:01:18;22.40;;;6.45;;
79229;SDS011;68663;49.122;17.544;2023-11-21T06:03:44;21.25;;;6.78;;
79229;SDS011;68663;49.122;17.544;2023-11-21T06:06:10;23.90;;;7.13;;
79229;SDS011;68663;49.122;17.544;2023-11-21T06:08:36;17.90;;;5.75;;
79229;SDS011;68663;49.122;17.544;2023-11-21T06:11:01;17.92;;;5.80;;
79229;SDS011;68663;49.122;17.544;2023-11-21T06:13:27;16.90;;;6.20;;
79229;SDS011;68663;49.122;17.544;2023-11-21T06:15:52;23.13;;;7.78;;
79229;SDS011;68663;49.122;17.544;2023-11-21T06:18:18;17.17;;;6.40;;
79229;SDS011;68663;49.122;17.544;2023-11-21T06:20:47;17.27;;;6.03;;
79229;SDS011;68663;49.122;17.544;2023-11-21T06:23:12;16.02;;;6.13;;
79229;SDS011;68663;49.122;17.544;2023-11-21T06:25:39;12.02;;;5.20;;
79229;SDS011;68663;49.122;17.544;2023-11-21T06:28:05;18.75;;;6.88;;
79229;SDS011;68663;49.122;17.544;2023-11-21T06:30:30;13.05;;;4.55;;
79229;SDS011;68663;49.122;17.544;2023-11-21T06:32:57;13.00;;;5.22;;
79229;SDS011;68663;49.122;17.544;2023-11-21T06:35:22;14.27;;;5.40;;
79229;SDS011;68663;49.122;17.544;2023-11-21T06:37:47;12.63;;;4.90;;
79229;SDS011;68663;49.122;17.544;2023-11-21T06:40:13;13.90;;;5.20;;
79229;SDS011;68663;49.122;17.544;2023-11-21T06:42:43;16.17;;;5.40;;
79229;SDS011;68663;49.122;17.544;2023-11-21T06:45:09;13.88;;;5.47;;
79229;SDS011;68663;49.122;17.544;2023-11-21T06:47:36;12.45;;;5.82;;
79229;SDS011;68663;49.122;17.544;2023-11-21T06:50:03;14.18;;;5.88;;
79229;SDS011;68663;49.122;17.544;2023-11-21T06:52:28;13.23;;;4.97;;
79229;SDS011;68663;49.122;17.544;2023-11-21T06:54:54;12.37;;;5.00;;
79229;SDS011;68663;49.122;17.544;2023-11-21T06:57:19;20.83;;;5.45;;
79229;SDS011;68663;49.122;17.544;2023-11-21T06:59:45;13.68;;;5.30;;
79229;SDS011;68663;49.122;17.544;2023-11-21T07:02:10;12.25;;;5.50;;
79229;SDS011;68663;49.122;17.544;2023-11-21T07:04:36;12.93;;;5.20;;
79229;SDS011;68663;49.122;17.544;2023-11-21T07:07:02;11.65;;;4.70;;
79229;SDS011;68663;49.122;17.544;2023-11-21T07:09:28;15.52;;;5.50;;
79229;SDS011;68663;49.122;17.544;2023-11-21T07:11:54;12.80;;;4.43;;
79229;SDS011;68663;49.122;17.544;2023-11-21T07:14:20;12.88;;;5.68;;
79229;SDS011;68663;49.122;17.544;2023-11-21T07:16:46;13.35;;;5.00;;
79229;SDS011;68663;49.122;17.544;2023-11-21T07:19:11;12.10;;;4.45;;
79229;SDS011;68663;49.122;17.544;2023-11-21T07:21:37;11.93;;;4.97;;
79229;SDS011;68663;49.122;17.544;2023-11-21T07:24:04;11.20;;;4.38;;
79229;SDS011;68663;49.122;17.544;2023-11-21T07:26:31;10.90;;;4.85;;
79229;SDS011;68663;49.122;17.544;2023-11-21T07:28:58;12.63;;;4.63;;
79229;SDS011;68663;49.122;17.544;2023-11-21T07:31:24;9.52;;;4.47;;
79229;SDS011;68663;49.122;17.544;2023-11-21T07:33:50;9.82;;;4.10;;
79229;SDS011;68663;49.122;17.544;2023-11-21T07:36:16;9.88;;;4.35;;
79229;SDS011;68663;49.122;17.544;2023-11-21T07:38:43;12.95;;;4.53;;
79229;SDS011;68663;49.122;17.544;2023-11-21T07:41:09;10.30;;;5.20;;
79229;SDS011;68663;49.122;17.544;2023-11-21T07:43:36;10.95;;;4.43;;
79229;SDS011;68663;49.122;17.544;2023-11-21T07:46:01;9.73;;;4.20;;
79229;SDS011;68663;49.122;17.544;2023-11-21T07:48:29;8.82;;;4.68;;
79229;SDS011;68663;49.122;17.544;2023-11-21T07:50:54;15.57;;;4.10;;
79229;SDS011;68663;49.122;17.544;2023-11-21T07:53:20;10.20;;;4.07;;
79229;SDS011;68663;49.122;17.544;2023-11-21T07:55:45;8.93;;;3.80;;
79229;SDS011;68663;49.122;17.544;2023-11-21T07:58:12;8.50;;;4.40;;
79229;SDS011;68663;49.122;17.544;2023-11-21T08:00:37;10.30;;;4.55;;
79229;SDS011;68663;49.122;17.544;2023-11-21T08:03:04;7.25;;;4.00;;
79229;SDS011;68663;49.122;17.544;2023-11-21T08:05:30;10.55;;;4.40;;
79229;SDS011;68663;49.122;17.544;2023-11-21T08:07:56;8.43;;;4.00;;
79229;SDS011;68663;49.122;17.544;2023-11-21T08:10:22;10.07;;;4.93;;
79229;SDS011;68663;49.122;17.544;2023-11-21T08:12:47;9.75;;;4.38;;
79229;SDS011;68663;49.122;17.544;2023-11-21T08:15:13;11.95;;;4.25;;
79229;SDS011;68663;49.122;17.544;2023-11-21T08:17:39;7.07;;;3.72;;
79229;SDS011;68663;49.122;17.544;2023-11-21T08:20:05;9.55;;;3.80;;
79229;SDS011;68663;49.122;17.544;2023-11-21T08:22:31;9.18;;;4.10;;
79229;SDS011;68663;49.122;17.544;2023-11-21T08:24:57;8.55;;;3.78;;
79229;SDS011;68663;49.122;17.544;2023-11-21T08:27:23;7.40;;;3.60;;
79229;SDS011;68663;49.122;17.544;2023-11-21T08:29:48;7.40;;;3.95;;
79229;SDS011;68663;49.122;17.544;2023-11-21T08:32:13;5.78;;;3.22;;
79229;SDS011;68663;49.122;17.544;2023-11-21T08:34:40;9.20;;;3.90;;
79229;SDS011;68663;49.122;17.544;2023-11-21T08:37:08;7.85;;;3.65;;
79229;SDS011;68663;49.122;17.544;2023-11-21T08:39:33;7.30;;;3.83;;
79229;SDS011;68663;49.122;17.544;2023-11-21T08:41:59;6.53;;;3.75;;
79229;SDS011;68663;49.122;17.544;2023-11-21T08:44:24;10.65;;;4.15;;
79229;SDS011;68663;49.122;17.544;2023-11-21T08:46:50;7.05;;;3.72;;
79229;SDS011;68663;49.122;17.544;2023-11-21T08:49:15;6.03;;;3.83;;
79229;SDS011;68663;49.122;17.544;2023-11-21T08:51:41;7.45;;;3.40;;
79229;SDS011;68663;49.122;17.544;2023-11-21T08:54:06;6.85;;;4.20;;
79229;SDS011;68663;49.122;17.544;2023-11-21T08:56:33;6.85;;;3.70;;
79229;SDS011;68663;49.122;17.544;2023-11-21T08:58:59;7.93;;;4.10;;
79229;SDS011;68663;49.122;17.544;2023-11-21T09:01:28;6.38;;;3.50;;
79229;SDS011;68663;49.122;17.544;2023-11-21T09:06:22;6.70;;;2.97;;
79229;SDS011;68663;49.122;17.544;2023-11-21T09:08:47;7.33;;;3.93;;
79229;SDS011;68663;49.122;17.544;2023-11-21T09:11:13;6.20;;;3.47;;
79229;SDS011;68663;49.122;17.544;2023-11-21T09:13:38;7.78;;;2.95;;
79229;SDS011;68663;49.122;17.544;2023-11-21T09:16:04;7.30;;;3.42;;
79229;SDS011;68663;49.122;17.544;2023-11-21T09:18:30;7.40;;;3.28;;
79229;SDS011;68663;49.122;17.544;2023-11-21T09:20:56;8.07;;;3.47;;
79229;SDS011;68663;49.122;17.544;2023-11-21T09:23:21;8.53;;;3.37;;
79229;SDS011;68663;49.122;17.544;2023-11-21T09:25:47;7.82;;;3.83;;
79229;SDS011;68663;49.122;17.544;2023-11-21T09:28:15;7.35;;;3.45;;
79229;SDS011;68663;49.122;17.544;2023-11-21T09:30:40;7.25;;;3.50;;
79229;SDS011;68663;49.122;17.544;2023-11-21T09:33:06;7.20;;;3.15;;
79229;SDS011;68663;49.122;17.544;2023-11-21T09:35:31;6.68;;;3.58;;
79229;SDS011;68663;49.122;17.544;2023-11-21T09:37:57;6.05;;;3.45;;
79229;SDS011;68663;49.122;17.544;2023-11-21T09:40:23;7.60;;;3.67;;
79229;SDS011;68663;49.122;17.544;2023-11-21T09:42:52;6.03;;;3.20;;
79229;SDS011;68663;49.122;17.544;2023-11-21T09:45:26;8.82;;;3.95;;
79229;SDS011;68663;49.122;17.544;2023-11-21T09:47:53;7.28;;;3.65;;
79229;SDS011;68663;49.122;17.544;2023-11-21T09:50:22;6.00;;;2.80;;
79229;SDS011;68663;49.122;17.544;2023-11-21T09:52:55;5.68;;;3.20;;
79229;SDS011;68663;49.122;17.544;2023-11-21T09:55:35;7.72;;;3.45;;
79229;SDS011;68663;49.122;17.544;2023-11-21T09:58:02;6.30;;;2.95;;
79229;SDS011;68663;49.122;17.544;2023-11-21T10:00:28;6.07;;;3.30;;
79229;SDS011;68663;49.122;17.544;2023-11-21T10:02:58;6.57;;;3.03;;
79229;SDS011;68663;49.122;17.544;2023-11-21T10:05:24;5.53;;;3.10;;
79229;SDS011;68663;49.122;17.544;2023-11-21T10:07:50;5.15;;;2.80;;
79229;SDS011;68663;49.122;17.544;2023-11-21T10:10:17;8.63;;;3.55;;
79229;SDS011;68663;49.122;17.544;2023-11-21T10:12:46;5.63;;;2.97;;
79229;SDS011;68663;49.122;17.544;2023-11-21T10:15:16;5.32;;;2.90;;
79229;SDS011;68663;49.122;17.544;2023-11-21T10:17:42;5.15;;;2.75;;
79229;SDS011;68663;49.122;17.544;2023-11-21T10:20:10;6.30;;;2.95;;
79229;SDS011;68663;49.122;17.544;2023-11-21T10:22:37;6.70;;;3.25;;
79229;SDS011;68663;49.122;17.544;2023-11-21T10:25:07;6.35;;;3.10;;
79229;SDS011;68663;49.122;17.544;2023-11-21T10:27:33;5.63;;;3.10;;
79229;SDS011;68663;49.122;17.544;2023-11-21T10:30:03;6.68;;;2.72;;
79229;SDS011;68663;49.122;17.544;2023-11-21T10:32:29;4.90;;;2.50;;
79229;SDS011;68663;49.122;17.544;2023-11-21T10:34:58;5.35;;;2.72;;
79229;SDS011;68663;49.122;17.544;2023-11-21T10:37:32;6.82;;;3.03;;
79229;SDS011;68663;49.122;17.544;2023-11-21T10:40:00;6.70;;;2.97;;
79229;SDS011;68663;49.122;17.544;2023-11-21T10:42:26;5.30;;;3.13;;
79229;SDS011;68663;49.122;17.544;2023-11-21T10:44:54;5.32;;;2.85;;
79229;SDS011;68663;49.122;17.544;2023-11-21T10:47:20;5.35;;;3.20;;
79229;SDS011;68663;49.122;17.544;2023-11-21T10:49:50;4.32;;;2.53;;
79229;SDS011;68663;49.122;17.544;2023-11-21T10:52:18;5.57;;;2.85;;
79229;SDS011;68663;49.122;17.544;2023-11-21T10:54:44;4.35;;;2.72;;
79229;SDS011;68663;49.122;17.544;2023-11-21T10:57:10;5.07;;;2.72;;
79229;SDS011;68663;49.122;17.544;2023-11-21T10:59:42;4.55;;;2.50;;
79229;SDS011;68663;49.122;17.544;2023-11-21T11:02:25;5.82;;;3.00;;
79229;SDS011;68663;49.122;17.544;2023-11-21T11:04:53;5.03;;;2.70;;
79229;SDS011;68663;49.122;17.544;2023-11-21T11:07:21;4.07;;;2.38;;
79229;SDS011;68663;49.122;17.544;2023-11-21T11:09:50;4.72;;;2.78;;
79229;SDS011;68663;49.122;17.544;2023-11-21T11:12:17;4.95;;;2.85;;
79229;SDS011;68663;49.122;17.544;2023-11-21T11:14:42;6.28;;;2.90;;
79229;SDS011;68663;49.122;17.544;2023-11-21T11:17:09;4.65;;;2.70;;
79229;SDS011;68663;49.122;17.544;2023-11-21T11:19:35;4.53;;;2.50;;
79229;SDS011;68663;49.122;17.544;2023-11-21T11:25:20;5.75;;;2.83;;
79229;SDS011;68663;49.122;17.544;2023-11-21T11:28:04;4.75;;;2.65;;
79229;SDS011;68663;49.122;17.544;2023-11-21T11:30:41;5.05;;;2.85;;
79229;SDS011;68663;49.122;17.544;2023-11-21T11:33:39;4.47;;;2.50;;
79229;SDS011;68663;49.122;17.544;2023-11-21T11:38:34;3.80;;;2.40;;
79229;SDS011;68663;49.122;17.544;2023-11-21T11:41:04;4.35;;;3.03;;
79229;SDS011;68663;49.122;17.544;2023-11-21T11:43:30;4.30;;;2.55;;
79229;SDS011;68663;49.122;17.544;2023-11-21T11:46:09;4.75;;;2.53;;
79229;SDS011;68663;49.122;17.544;2023-11-21T11:48:38;5.57;;;2.55;;
79229;SDS011;68663;49.122;17.544;2023-11-21T11:51:11;3.90;;;2.80;;
79229;SDS011;68663;49.122;17.544;2023-11-21T11:53:48;4.82;;;2.85;;
79229;SDS011;68663;49.122;17.544;2023-11-21T11:58:54;4.43;;;2.40;;
79229;SDS011;68663;49.122;17.544;2023-11-21T12:01:22;4.38;;;2.00;;
79229;SDS011;68663;49.122;17.544;2023-11-21T12:06:40;3.58;;;2.28;;
79229;SDS011;68663;49.122;17.544;2023-11-21T12:09:07;3.47;;;2.30;;
79229;SDS011;68663;49.122;17.544;2023-11-21T12:11:40;3.72;;;2.72;;
79229;SDS011;68663;49.122;17.544;2023-11-21T12:14:06;3.90;;;2.50;;
79229;SDS011;68663;49.122;17.544;2023-11-21T12:16:32;4.38;;;2.53;;
79229;SDS011;68663;49.122;17.544;2023-11-21T12:18:58;3.75;;;2.03;;
79229;SDS011;68663;49.122;17.544;2023-11-21T12:21:23;3.63;;;2.30;;
79229;SDS011;68663;49.122;17.544;2023-11-21T12:23:49;4.40;;;2.20;;
79229;SDS011;68663;49.122;17.544;2023-11-21T12:26:16;4.45;;;2.70;;
79229;SDS011;68663;49.122;17.544;2023-11-21T12:28:41;3.47;;;2.10;;
79229;SDS011;68663;49.122;17.544;2023-11-21T12:31:06;4.30;;;2.37;;
79229;SDS011;68663;49.122;17.544;2023-11-21T12:33:33;4.53;;;2.65;;
79229;SDS011;68663;49.122;17.544;2023-11-21T12:35:58;3.15;;;2.10;;
79229;SDS011;68663;49.122;17.544;2023-11-21T12:40:51;3.75;;;2.20;;
79229;SDS011;68663;49.122;17.544;2023-11-21T12:43:19;3.90;;;2.55;;
79229;SDS011;68663;49.122;17.544;2023-11-21T12:45:45;4.18;;;2.40;;
79229;SDS011;68663;49.122;17.544;2023-11-21T12:48:10;3.97;;;2.63;;
79229;SDS011;68663;49.122;17.544;2023-11-21T12:50:36;3.47;;;1.95;;
79229;SDS011;68663;49.122;17.544;2023-11-21T12:53:09;4.15;;;2.15;;
79229;SDS011;68663;49.122;17.544;2023-11-21T12:55:41;4.55;;;2.10;;
79229;SDS011;68663;49.122;17.544;2023-11-21T12:58:08;4.18;;;2.30;;
79229;SDS011;68663;49.122;17.544;2023-11-21T13:00:39;4.40;;;2.17;;
79229;SDS011;68663;49.122;17.544;2023-11-21T13:03:11;4.70;;;2.50;;
79229;SDS011;68663;49.122;17.544;2023-11-21T13:05:41;3.88;;;2.20;;
79229;SDS011;68663;49.122;17.544;2023-11-21T13:08:10;3.88;;;2.00;;
79229;SDS011;68663;49.122;17.544;2023-11-21T13:10:44;3.90;;;2.20;;
79229;SDS011;68663;49.122;17.544;2023-11-21T13:13:12;3.38;;;1.85;;
79229;SDS011;68663;49.122;17.544;2023-11-21T13:15:49;3.67;;;2.20;;
79229;SDS011;68663;49.122;17.544;2023-11-21T13:18:16;3.08;;;1.95;;
79229;SDS011;68663;49.122;17.544;2023-11-21T13:20:42;4.63;;;2.17;;
79229;SDS011;68663;49.122;17.544;2023-11-21T13:23:08;4.20;;;2.55;;
79229;SDS011;68663;49.122;17.544;2023-11-21T13:25:37;3.17;;;2.10;;
79229;SDS011;68663;49.122;17.544;2023-11-21T13:28:04;3.08;;;2.15;;
79229;SDS011;68663;49.122;17.544;2023-11-21T13:30:30;3.45;;;2.15;;
79229;SDS011;68663;49.122;17.544;2023-11-21T13:33:02;3.60;;;2.20;;
79229;SDS011;68663;49.122;17.544;2023-11-21T13:35:31;4.07;;;1.90;;
79229;SDS011;68663;49.122;17.544;2023-11-21T13:38:10;3.85;;;2.13;;
79229;SDS011;68663;49.122;17.544;2023-11-21T13:40:37;3.20;;;1.92;;
79229;SDS011;68663;49.122;17.544;2023-11-21T13:43:14;2.55;;;2.03;;
79229;SDS011;68663;49.122;17.544;2023-11-21T13:45:43;3.08;;;1.98;;
79229;SDS011;68663;49.122;17.544;2023-11-21T13:48:11;3.53;;;2.03;;
79229;SDS011;68663;49.122;17.544;2023-11-21T13:50:44;3.78;;;2.10;;
79229;SDS011;68663;49.122;17.544;2023-11-21T13:53:20;2.97;;;1.98;;
79229;SDS011;68663;49.122;17.544;2023-11-21T13:55:49;4.68;;;2.28;;
79229;SDS011;68663;49.122;17.544;2023-11-21T13:58:23;3.35;;;2.20;;
79229;SDS011;68663;49.122;17.544;2023-11-21T14:01:00;4.28;;;1.95;;
79229;SDS011;68663;49.122;17.544;2023-11-21T14:03:26;3.47;;;2.10;;
79229;SDS011;68663;49.122;17.544;2023-11-21T14:06:04;3.58;;;2.05;;
79229;SDS011;68663;49.122;17.544;2023-11-21T14:08:39;3.75;;;1.88;;
79229;SDS011;68663;49.122;17.544;2023-11-21T14:11:06;3.00;;;1.92;;
79229;SDS011;68663;49.122;17.544;2023-11-21T14:13:32;2.60;;;1.98;;
79229;SDS011;68663;49.122;17.544;2023-11-21T14:15:58;3.30;;;1.92;;
79229;SDS011;68663;49.122;17.544;2023-11-21T14:18:25;3.38;;;2.15;;
79229;SDS011;68663;49.122;17.544;2023-11-21T14:21:15;2.90;;;2.08;;
79229;SDS011;68663;49.122;17.544;2023-11-21T14:23:41;4.03;;;1.90;;
79229;SDS011;68663;49.122;17.544;2023-11-21T14:26:08;3.38;;;1.90;;
79229;SDS011;68663;49.122;17.544;2023-11-21T14:28:33;2.83;;;1.92;;
79229;SDS011;68663;49.122;17.544;2023-11-21T14:31:01;2.70;;;1.95;;
79229;SDS011;68663;49.122;17.544;2023-11-21T14:33:28;3.40;;;1.85;;
79229;SDS011;68663;49.122;17.544;2023-11-21T14:35:53;4.00;;;2.03;;
79229;SDS011;68663;49.122;17.544;2023-11-21T14:38:19;2.97;;;2.17;;
79229;SDS011;68663;49.122;17.544;2023-11-21T14:40:44;3.50;;;2.03;;
79229;SDS011;68663;49.122;17.544;2023-11-21T14:43:10;3.65;;;1.95;;
79229;SDS011;68663;49.122;17.544;2023-11-21T14:45:36;7.25;;;2.45;;